Time;durP1;ratioP1;P1;durP2;ratioP2;P2;SDS_P1;SDS_P2;PMS_P1;PMS_P2;Temp;Humidity;BMP_temperature;BMP_pressure;BME280_temperature;BME280_humidity;BME280_pressure;Samples;Min_cycle;Max_cycle;Signal;HPM_P1;HPM_P2
2023/04/04 00:00:45;;;;;;;3.33;1.30;;;2.90;99.90;;;;;;5059828;28;20444;-63
2023/04/04 00:03:12;;;;;;;3.00;1.40;;;2.80;99.90;;;;;;5060688;28;20440;-63
2023/04/04 00:05:41;;;;;;;1.77;1.00;;;2.80;99.90;;;;;;5060163;28;20424;-61
2023/04/04 00:08:08;;;;;;;2.50;1.27;;;2.80;99.90;;;;;;5060370;28;20455;-59
2023/04/04 00:10:36;;;;;;;2.53;1.27;;;2.80;99.90;;;;;;5059856;28;20428;-62
2023/04/04 00:13:04;;;;;;;1.93;1.13;;;2.80;99.90;;;;;;5059790;28;20459;-58
2023/04/04 00:15:31;;;;;;;1.70;1.10;;;2.80;99.90;;;;;;5059668;28;20547;-61
2023/04/04 00:17:58;;;;;;;16.90;2.00;;;2.80;99.90;;;;;;5059608;28;20436;-60
2023/04/04 00:20:25;;;;;;;2.43;1.07;;;2.70;99.90;;;;;;5059946;28;20436;-61
2023/04/04 00:22:52;;;;;;;2.50;1.40;;;2.70;99.90;;;;;;5059655;28;20432;-62
2023/04/04 00:25:19;;;;;;;5.97;1.30;;;2.60;99.90;;;;;;5059473;28;20468;-63
2023/04/04 00:27:50;;;;;;;1.40;1.00;;;2.60;99.90;;;;;;5059845;28;20448;-60
2023/04/04 00:30:17;;;;;;;1.77;1.20;;;2.60;99.90;;;;;;5059469;28;20443;-57
2023/04/04 00:32:44;;;;;;;1.20;0.90;;;2.60;99.90;;;;;;5059009;28;20421;-59
2023/04/04 00:35:11;;;;;;;2.47;1.17;;;2.60;99.90;;;;;;5059177;28;20488;-62
2023/04/04 00:37:40;;;;;;;6.10;1.37;;;2.60;99.90;;;;;;5060078;28;20486;-62
2023/04/04 00:40:09;;;;;;;5.17;2.07;;;2.60;99.90;;;;;;5059568;28;20421;-60
2023/04/04 00:42:37;;;;;;;9.60;1.53;;;2.50;99.90;;;;;;5059754;28;20459;-62
2023/04/04 00:45:08;;;;;;;2.07;1.53;;;2.50;99.90;;;;;;5059430;28;20448;-61
2023/04/04 00:47:37;;;;;;;2.70;1.87;;;2.50;99.90;;;;;;5060081;28;20421;-57
2023/04/04 00:50:07;;;;;;;5.93;1.40;;;2.50;99.90;;;;;;5060048;28;20499;-60
2023/04/04 00:52:33;;;;;;;1.93;1.30;;;2.50;99.90;;;;;;5059970;28;20456;-60
2023/04/04 00:55:00;;;;;;;3.30;1.57;;;2.40;99.90;;;;;;5059313;28;20527;-61
2023/04/04 00:57:28;;;;;;;1.93;1.33;;;2.40;99.90;;;;;;5059953;28;20421;-61
2023/04/04 01:00:03;;;;;;;2.03;1.37;;;2.40;99.90;;;;;;5059808;28;20428;-59
2023/04/04 01:02:34;;;;;;;3.10;2.00;;;2.40;99.90;;;;;;5059412;28;20472;-62
2023/04/04 01:05:06;;;;;;;5.37;1.40;;;2.40;99.90;;;;;;5059541;28;20478;-60
2023/04/04 01:07:39;;;;;;;1.20;1.00;;;2.40;99.90;;;;;;5059259;28;20458;-60
2023/04/04 01:10:07;;;;;;;2.23;1.53;;;2.40;99.90;;;;;;5059379;28;20488;-60
2023/04/04 01:12:34;;;;;;;5.73;1.20;;;2.40;99.90;;;;;;5058550;28;20467;-62
2023/04/04 01:15:07;;;;;;;2.83;1.20;;;2.40;99.90;;;;;;5059412;28;20452;-61
2023/04/04 01:17:36;;;;;;;6.90;1.33;;;2.40;99.90;;;;;;5058842;28;20439;-61
2023/04/04 01:20:06;;;;;;;2.37;1.50;;;2.40;99.90;;;;;;5058784;28;20464;-60
2023/04/04 01:22:34;;;;;;;4.40;1.83;;;2.40;99.90;;;;;;5058086;28;20489;-58
2023/04/04 01:25:04;;;;;;;6.03;1.97;;;2.30;99.90;;;;;;5058613;28;20437;-60
2023/04/04 01:27:32;;;;;;;2.23;1.50;;;2.30;99.90;;;;;;5058465;28;20435;-59
2023/04/04 01:29:59;;;;;;;4.00;2.03;;;2.30;99.90;;;;;;5058824;28;20417;-60
2023/04/04 01:32:36;;;;;;;6.23;2.33;;;2.30;99.90;;;;;;5058437;28;20468;-63
2023/04/04 01:35:19;;;;;;;2.13;1.20;;;2.30;99.90;;;;;;5058257;28;20459;-59
2023/04/04 01:37:58;;;;;;;2.60;1.30;;;2.30;99.90;;;;;;5058632;28;20463;-57
2023/04/04 01:40:33;;;;;;;3.30;1.30;;;2.30;99.90;;;;;;5058290;28;20408;-64
2023/04/04 01:43:06;;;;;;;4.73;1.37;;;2.20;99.90;;;;;;5058415;28;20439;-58
2023/04/04 01:45:33;;;;;;;3.67;2.00;;;2.20;99.90;;;;;;5058413;28;20449;-60
2023/04/04 01:48:00;;;;;;;1.83;1.20;;;2.20;99.90;;;;;;5058509;28;20428;-62
2023/04/04 01:50:32;;;;;;;7.57;1.40;;;2.10;99.90;;;;;;5057944;28;20479;-61
2023/04/04 01:52:59;;;;;;;2.40;1.10;;;2.10;99.90;;;;;;5058154;28;20425;-61
2023/04/04 01:55:28;;;;;;;1.30;1.03;;;2.20;99.90;;;;;;5058360;28;20552;-59
2023/04/04 01:57:55;;;;;;;2.23;1.47;;;2.20;99.90;;;;;;5058601;28;20433;-62
2023/04/04 02:00:23;;;;;;;1.90;1.23;;;2.10;99.90;;;;;;5058756;28;20451;-61
2023/04/04 02:02:51;;;;;;;2.10;1.30;;;2.10;99.90;;;;;;5057870;28;20471;-57
2023/04/04 02:05:20;;;;;;;2.03;1.30;;;2.10;99.90;;;;;;5057829;28;20488;-57
2023/04/04 02:07:49;;;;;;;1.93;1.40;;;2.10;99.90;;;;;;5058435;28;20429;-57
2023/04/04 02:10:19;;;;;;;2.93;1.20;;;2.00;99.90;;;;;;5057632;28;20455;-60
2023/04/04 02:12:46;;;;;;;8.83;1.70;;;2.00;99.90;;;;;;5058285;28;20456;-63
2023/04/04 02:15:13;;;;;;;1.63;1.13;;;2.00;99.90;;;;;;5058011;28;20463;-60
2023/04/04 02:17:44;;;;;;;2.80;1.73;;;2.00;99.90;;;;;;5057784;28;20479;-59
2023/04/04 02:20:12;;;;;;;3.70;2.27;;;1.90;99.90;;;;;;5057984;28;20432;-60
2023/04/04 02:22:39;;;;;;;7.43;2.17;;;1.90;99.90;;;;;;5058299;28;20441;-60
2023/04/04 02:25:06;;;;;;;3.67;1.50;;;1.90;99.90;;;;;;5057718;28;20448;-58
2023/04/04 02:27:33;;;;;;;4.17;1.70;;;1.90;99.90;;;;;;5057444;28;20448;-61
2023/04/04 02:30:09;;;;;;;2.77;1.73;;;1.90;99.90;;;;;;5057191;28;20463;-61
2023/04/04 02:32:43;;;;;;;3.50;1.83;;;1.90;99.90;;;;;;5057907;28;20435;-60
2023/04/04 02:35:10;;;;;;;2.90;1.30;;;1.90;99.90;;;;;;5058433;28;20756;-59
2023/04/04 02:37:40;;;;;;;2.40;1.33;;;1.90;99.90;;;;;;5057817;28;20429;-59
2023/04/04 02:40:13;;;;;;;20.67;2.07;;;1.90;99.90;;;;;;5057554;28;20468;-61
2023/04/04 02:42:43;;;;;;;2.70;1.10;;;1.90;99.90;;;;;;5057885;28;20428;-58
2023/04/04 02:45:14;;;;;;;3.07;1.33;;;1.80;99.90;;;;;;5058016;28;20455;-60
2023/04/04 02:47:42;;;;;;;5.40;1.50;;;1.80;99.90;;;;;;5057455;28;20520;-61
2023/04/04 02:50:11;;;;;;;3.33;2.53;;;1.80;99.90;;;;;;5057361;28;20452;-59
2023/04/04 02:52:39;;;;;;;3.33;2.20;;;1.80;99.90;;;;;;5057684;28;20434;-60
2023/04/04 02:55:07;;;;;;;2.03;1.40;;;1.80;99.90;;;;;;5057798;28;20444;-60
2023/04/04 02:57:34;;;;;;;4.50;1.80;;;1.80;99.90;;;;;;5057287;28;20496;-58
2023/04/04 03:00:02;;;;;;;1.80;1.17;;;1.70;99.90;;;;;;5057407;28;20463;-62
2023/04/04 03:02:29;;;;;;;4.40;1.57;;;1.70;99.90;;;;;;5056832;28;20432;-60
2023/04/04 03:04:56;;;;;;;3.17;2.23;;;1.70;99.90;;;;;;5057388;28;20483;-59
2023/04/04 03:07:28;;;;;;;2.10;1.80;;;1.70;99.90;;;;;;5056938;28;20467;-56
2023/04/04 03:09:57;;;;;;;2.60;1.97;;;1.70;99.90;;;;;;5056553;28;20491;-62
2023/04/04 03:12:24;;;;;;;1.97;1.80;;;1.70;99.90;;;;;;5057062;28;20483;-61
2023/04/04 03:14:51;;;;;;;9.73;2.30;;;1.70;99.90;;;;;;5056777;28;20428;-60
2023/04/04 03:17:18;;;;;;;2.53;2.30;;;1.70;99.90;;;;;;5058851;28;20479;-60
2023/04/04 03:19:46;;;;;;;1.80;1.13;;;1.70;99.90;;;;;;5061641;28;20411;-54
2023/04/04 03:22:17;;;;;;;2.30;1.50;;;1.60;99.90;;;;;;5061442;28;20456;-60
2023/04/04 03:24:46;;;;;;;2.93;1.80;;;1.60;99.90;;;;;;5061413;28;20411;-59
2023/04/04 03:27:12;;;;;;;4.50;2.47;;;1.60;99.90;;;;;;5061416;28;20475;-61
2023/04/04 03:29:39;;;;;;;2.90;1.73;;;1.60;99.90;;;;;;5061742;28;20456;-58
2023/04/04 03:32:06;;;;;;;3.03;1.30;;;1.60;99.90;;;;;;5061482;28;20435;-60
2023/04/04 03:34:33;;;;;;;3.30;2.10;;;1.60;99.90;;;;;;5060897;28;20444;-58
2023/04/04 03:37:00;;;;;;;4.20;1.77;;;1.60;99.90;;;;;;5061632;28;20476;-58
2023/04/04 03:39:29;;;;;;;5.23;1.50;;;1.60;99.90;;;;;;5061631;28;20444;-60
2023/04/04 03:41:57;;;;;;;5.43;1.90;;;1.60;99.90;;;;;;5061612;28;20424;-61
2023/04/04 03:44:36;;;;;;;2.20;1.63;;;1.60;99.90;;;;;;5061330;28;20435;-62
2023/04/04 03:47:03;;;;;;;2.57;1.67;;;1.60;99.90;;;;;;5061160;28;20459;-60
2023/04/04 03:49:31;;;;;;;6.03;2.50;;;1.60;99.90;;;;;;5061250;28;20444;-63
2023/04/04 03:51:58;;;;;;;6.90;3.20;;;1.60;99.90;;;;;;5061397;28;20420;-59
2023/04/04 03:54:27;;;;;;;3.07;1.43;;;1.60;99.90;;;;;;5061986;28;20419;-58
2023/04/04 03:56:57;;;;;;;5.43;2.50;;;1.60;99.90;;;;;;5061642;28;20468;-58
2023/04/04 03:59:25;;;;;;;5.10;1.90;;;1.50;99.90;;;;;;5061474;28;20455;-57
2023/04/04 04:01:52;;;;;;;3.63;2.47;;;1.50;99.90;;;;;;5061084;28;20452;-58
2023/04/04 04:04:18;;;;;;;3.17;1.57;;;1.50;99.90;;;;;;5061295;28;20456;-58
2023/04/04 04:06:47;;;;;;;1.87;1.47;;;1.50;99.90;;;;;;5060529;28;20427;-62
2023/04/04 04:09:20;;;;;;;3.20;1.83;;;1.50;99.90;;;;;;5061129;28;20428;-62
2023/04/04 04:11:47;;;;;;;2.00;1.73;;;1.50;99.90;;;;;;5060153;28;20482;-61
2023/04/04 04:14:15;;;;;;;1.10;0.83;;;1.50;99.90;;;;;;5060283;28;20424;-62
2023/04/04 04:16:48;;;;;;;11.00;3.07;;;1.50;99.90;;;;;;5059763;28;20515;-59
2023/04/04 04:19:14;;;;;;;2.27;1.00;;;1.50;99.90;;;;;;5060569;28;20436;-58
2023/04/04 04:21:43;;;;;;;3.60;1.53;;;1.40;99.90;;;;;;5059741;28;20433;-59
2023/04/04 04:24:13;;;;;;;4.10;1.60;;;1.40;99.90;;;;;;5059945;28;20482;-62
2023/04/04 04:26:43;;;;;;;8.17;2.60;;;1.50;99.90;;;;;;5060237;28;20432;-63
2023/04/04 04:29:10;;;;;;;3.93;2.00;;;1.50;99.90;;;;;;5058825;28;20463;-63
2023/04/04 04:31:39;;;;;;;2.37;1.30;;;1.50;99.90;;;;;;5059871;28;20439;-58
2023/04/04 04:34:06;;;;;;;1.70;1.50;;;1.50;99.90;;;;;;5060541;28;20444;-58
2023/04/04 04:36:36;;;;;;;1.40;1.20;;;1.40;99.90;;;;;;5060437;28;20456;-58
2023/04/04 04:39:03;;;;;;;4.37;2.43;;;1.50;99.90;;;;;;5060179;28;20514;-63
2023/04/04 04:41:30;;;;;;;2.87;1.17;;;1.50;99.90;;;;;;5059376;28;20452;-62
2023/04/04 04:43:56;;;;;;;2.30;1.43;;;1.40;99.90;;;;;;5060078;28;20457;-60
2023/04/04 04:46:23;;;;;;;2.90;1.50;;;1.40;99.90;;;;;;5059518;28;20459;-64
2023/04/04 04:48:52;;;;;;;4.90;2.30;;;1.40;99.90;;;;;;5059534;28;20424;-60
2023/04/04 04:51:22;;;;;;;11.50;3.37;;;1.40;99.90;;;;;;5059105;28;20421;-63
2023/04/04 04:53:49;;;;;;;3.03;1.23;;;1.40;99.90;;;;;;5059143;28;20486;-61
2023/04/04 04:56:15;;;;;;;3.83;1.80;;;1.40;99.90;;;;;;5059629;28;20506;-61
2023/04/04 04:58:43;;;;;;;2.63;1.40;;;1.40;99.90;;;;;;5059751;28;20451;-58
2023/04/04 05:01:10;;;;;;;2.13;1.50;;;1.40;99.90;;;;;;5058890;28;20432;-57
2023/04/04 05:03:46;;;;;;;2.13;1.93;;;1.40;99.90;;;;;;5058714;28;20455;-62
2023/04/04 05:06:14;;;;;;;3.20;1.80;;;1.40;99.90;;;;;;5058532;28;20448;-56
2023/04/04 05:08:41;;;;;;;4.43;2.30;;;1.40;99.90;;;;;;5058606;28;20429;-61
2023/04/04 05:11:14;;;;;;;4.17;2.20;;;1.30;99.90;;;;;;5058544;28;20445;-61
2023/04/04 05:13:41;;;;;;;9.03;2.43;;;1.30;99.90;;;;;;5058059;28;20433;-63
2023/04/04 05:16:11;;;;;;;5.60;1.83;;;1.40;99.90;;;;;;5058597;28;20428;-61
2023/04/04 05:21:23;;;;;;;3.60;1.53;;;1.40;99.90;;;;;;5055977;28;20480;-61
2023/04/04 05:23:53;;;;;;;2.20;1.73;;;1.40;99.90;;;;;;5058612;28;20512;-64
2023/04/04 05:26:20;;;;;;;5.10;1.73;;;1.40;99.90;;;;;;5057946;28;20424;-62
2023/04/04 05:28:47;;;;;;;2.30;1.27;;;1.40;99.90;;;;;;5058779;28;20463;-61
2023/04/04 05:31:16;;;;;;;2.63;1.43;;;1.40;99.90;;;;;;5058481;28;20515;-61
2023/04/04 05:33:44;;;;;;;1.93;1.73;;;1.50;99.90;;;;;;5058365;28;20505;-61
2023/04/04 05:36:11;;;;;;;2.60;1.80;;;1.50;99.90;;;;;;5057554;28;20452;-58
2023/04/04 05:38:41;;;;;;;6.47;2.87;;;1.50;99.90;;;;;;5057206;28;20456;-61
2023/04/04 05:41:10;;;;;;;3.93;1.47;;;1.50;99.90;;;;;;5056783;28;20524;-63
2023/04/04 05:43:39;;;;;;;7.07;2.20;;;1.50;99.90;;;;;;5057970;28;20428;-61
2023/04/04 05:46:09;;;;;;;2.93;1.83;;;1.50;99.90;;;;;;5058153;28;20431;-61
2023/04/04 05:48:36;;;;;;;5.83;2.87;;;1.60;99.90;;;;;;5041368;28;20471;-63
2023/04/04 05:51:06;;;;;;;5.47;3.60;;;1.60;99.90;;;;;;5054998;28;20448;-56
2023/04/04 05:53:34;;;;;;;4.33;2.33;;;1.70;99.90;;;;;;5057752;28;20448;-62
2023/04/04 05:56:02;;;;;;;6.23;1.93;;;1.70;99.90;;;;;;5057726;28;20531;-58
2023/04/04 05:58:29;;;;;;;2.87;1.77;;;1.70;99.90;;;;;;5057717;28;20480;-57
2023/04/04 06:00:56;;;;;;;2.03;1.50;;;1.80;99.90;;;;;;5057798;28;20479;-62
2023/04/04 06:03:27;;;;;;;2.83;2.10;;;1.90;99.90;;;;;;5058272;28;20448;-62
2023/04/04 06:05:54;;;;;;;8.70;5.17;;;1.90;99.90;;;;;;5058272;28;20456;-60
2023/04/04 06:08:25;;;;;;;9.23;2.90;;;1.90;99.90;;;;;;5057101;28;20464;-64
2023/04/04 06:10:54;;;;;;;2.27;1.87;;;2.00;99.90;;;;;;5056530;28;20433;-62
2023/04/04 06:13:27;;;;;;;3.80;1.83;;;2.00;99.90;;;;;;5056730;28;20452;-61
2023/04/04 06:15:54;;;;;;;6.60;1.70;;;2.10;99.90;;;;;;5056368;28;20471;-57
2023/04/04 06:18:22;;;;;;;9.37;2.80;;;2.10;99.90;;;;;;5057009;28;20472;-63
2023/04/04 06:20:52;;;;;;;5.67;1.53;;;2.10;99.90;;;;;;5057053;28;20427;-61
2023/04/04 06:23:19;;;;;;;3.00;1.37;;;2.10;99.90;;;;;;5056955;28;20464;-63
2023/04/04 06:25:53;;;;;;;6.27;2.17;;;2.20;99.90;;;;;;5057455;28;20444;-60
2023/04/04 06:28:26;;;;;;;6.17;1.83;;;2.30;99.90;;;;;;5057275;28;20488;-61
2023/04/04 06:30:56;;;;;;;6.60;2.17;;;2.30;99.90;;;;;;5057204;28;20425;-62
2023/04/04 06:33:25;;;;;;;4.87;1.90;;;2.40;99.90;;;;;;5057200;28;20442;-63
2023/04/04 06:35:51;;;;;;;2.30;1.43;;;2.50;99.90;;;;;;5056535;28;20467;-62
2023/04/04 06:38:18;;;;;;;1.80;1.33;;;2.40;99.90;;;;;;5056858;28;20456;-56
2023/04/04 06:40:45;;;;;;;3.00;1.73;;;2.50;99.90;;;;;;5056630;28;20480;-63
2023/04/04 06:43:12;;;;;;;4.57;2.90;;;2.50;99.90;;;;;;5057653;28;20471;-62
2023/04/04 06:45:39;;;;;;;7.27;1.67;;;2.50;99.90;;;;;;5057524;28;20465;-63
2023/04/04 06:48:09;;;;;;;2.07;1.30;;;2.60;99.90;;;;;;5057571;28;20421;-59
2023/04/04 06:50:36;;;;;;;3.33;1.57;;;2.60;99.90;;;;;;5056776;28;20503;-62
2023/04/04 06:53:04;;;;;;;4.40;1.77;;;2.70;99.90;;;;;;5055695;28;20468;-61
2023/04/04 06:55:36;;;;;;;4.80;1.40;;;2.70;99.90;;;;;;5056455;28;20475;-59
2023/04/04 06:58:02;;;;;;;2.30;1.53;;;2.80;99.90;;;;;;5056536;28;20468;-61
2023/04/04 07:00:29;;;;;;;2.63;1.43;;;2.80;99.90;;;;;;5057114;28;20416;-60
2023/04/04 07:02:59;;;;;;;1.67;1.50;;;2.80;99.90;;;;;;5056435;28;20444;-58
2023/04/04 07:05:29;;;;;;;5.40;1.93;;;2.90;99.90;;;;;;5056628;28;20501;-63
2023/04/04 07:07:56;;;;;;;1.60;1.23;;;3.00;99.90;;;;;;5056620;28;20424;-61
2023/04/04 07:10:23;;;;;;;6.50;1.40;;;3.10;99.90;;;;;;5055849;28;20467;-61
2023/04/04 07:12:51;;;;;;;2.30;1.30;;;3.10;99.90;;;;;;5056608;28;20412;-58
2023/04/04 07:15:19;;;;;;;1.80;1.70;;;3.10;99.90;;;;;;5056320;28;20467;-60
2023/04/04 07:17:46;;;;;;;5.60;1.50;;;3.20;99.90;;;;;;5055682;28;20478;-61
2023/04/04 07:20:16;;;;;;;2.40;1.47;;;3.20;99.90;;;;;;5055997;28;20436;-61
2023/04/04 07:22:45;;;;;;;2.73;1.50;;;3.20;99.90;;;;;;5055575;28;20464;-60
2023/04/04 07:25:12;;;;;;;4.20;1.77;;;3.20;99.90;;;;;;5056249;28;20436;-61
2023/04/04 07:27:40;;;;;;;1.70;1.33;;;3.30;99.90;;;;;;5056230;28;20554;-61
2023/04/04 07:30:08;;;;;;;1.60;1.10;;;3.40;99.90;;;;;;5057265;28;20445;-62
2023/04/04 07:32:38;;;;;;;2.40;1.13;;;3.50;99.90;;;;;;5056817;28;20482;-61
2023/04/04 07:35:05;;;;;;;2.70;1.13;;;3.60;99.90;;;;;;5056320;28;20479;-62
2023/04/04 07:37:32;;;;;;;3.77;1.20;;;3.60;99.90;;;;;;5056894;28;20460;-62
2023/04/04 07:40:03;;;;;;;2.07;1.23;;;3.70;99.90;;;;;;5056287;28;20466;-60
2023/04/04 07:42:30;;;;;;;2.60;1.30;;;3.80;99.90;;;;;;5055884;28;20761;-61
2023/04/04 07:44:57;;;;;;;2.90;1.93;;;3.80;99.90;;;;;;5056101;28;20440;-61
2023/04/04 07:47:26;;;;;;;3.20;1.30;;;3.90;99.90;;;;;;5056040;28;20474;-60
2023/04/04 07:49:56;;;;;;;4.10;1.63;;;4.00;99.90;;;;;;5056649;28;20448;-64
2023/04/04 07:52:25;;;;;;;1.70;1.13;;;4.00;99.90;;;;;;5056675;28;20437;-62
2023/04/04 07:54:52;;;;;;;1.90;1.27;;;4.10;99.90;;;;;;5056824;28;20441;-55
2023/04/04 07:57:21;;;;;;;1.50;0.83;;;4.10;99.90;;;;;;5056709;28;20490;-59
2023/04/04 07:59:48;;;;;;;3.53;1.40;;;4.10;99.90;;;;;;5056449;28;20448;-61
2023/04/04 08:02:14;;;;;;;3.40;1.83;;;4.20;99.90;;;;;;5056957;28;20428;-62
2023/04/04 08:04:41;;;;;;;3.53;1.57;;;4.30;99.90;;;;;;5059034;28;20463;-62
2023/04/04 08:07:08;;;;;;;3.03;1.37;;;4.30;99.90;;;;;;5060671;28;20447;-61
2023/04/04 08:09:35;;;;;;;3.13;1.53;;;4.50;99.90;;;;;;5060471;28;20472;-61
2023/04/04 08:12:02;;;;;;;6.50;1.30;;;4.60;99.90;;;;;;5060152;28;20436;-59
2023/04/04 08:14:32;;;;;;;2.07;1.47;;;4.90;99.90;;;;;;5060243;28;20454;-58
2023/04/04 08:17:01;;;;;;;3.00;1.30;;;5.90;99.90;;;;;;5059495;28;20475;-61
2023/04/04 08:19:28;;;;;;;7.80;1.10;;;7.90;99.90;;;;;;5059683;28;20448;-61
2023/04/04 08:21:55;;;;;;;6.80;1.10;;;10.30;99.90;;;;;;5058050;28;20491;-65
2023/04/04 08:24:23;;;;;;;5.53;1.47;;;12.90;92.10;;;;;;5058796;28;20460;-61
2023/04/04 08:26:50;;;;;;;2.83;1.67;;;15.00;73.40;;;;;;5059644;28;20448;-59
2023/04/04 08:29:22;;;;;;;1.83;1.40;;;16.30;62.90;;;;;;5059472;28;20450;-59
2023/04/04 08:31:50;;;;;;;3.23;2.93;;;17.80;55.30;;;;;;5059044;28;20476;-66
2023/04/04 08:34:17;;;;;;;3.33;1.63;;;19.00;50.40;;;;;;5058935;28;20431;-60
2023/04/04 08:36:48;;;;;;;6.87;1.80;;;20.30;47.20;;;;;;5058412;28;20467;-56
2023/04/04 08:39:17;;;;;;;2.50;1.70;;;20.90;44.00;;;;;;5058725;28;20476;-66
2023/04/04 08:41:56;;;;;;;3.40;2.10;;;21.20;41.70;;;;;;5058560;28;20452;-59
2023/04/04 08:44:26;;;;;;;2.00;1.20;;;21.40;39.90;;;;;;5055342;28;20468;-66
2023/04/04 08:46:55;;;;;;;3.00;1.80;;;20.80;40.00;;;;;;5051916;28;20458;-64
2023/04/04 08:49:28;;;;;;;4.63;1.60;;;20.30;39.90;;;;;;5058501;28;20459;-58
2023/04/04 08:51:58;;;;;;;2.07;1.73;;;20.30;39.10;;;;;;5058968;28;20448;-65
2023/04/04 08:54:26;;;;;;;1.90;1.70;;;20.10;38.70;;;;;;5057982;28;20484;-65
2023/04/04 08:56:54;;;;;;;2.00;1.67;;;20.00;39.00;;;;;;5055003;28;20519;-61
2023/04/04 08:59:21;;;;;;;2.60;1.37;;;19.90;39.20;;;;;;5056312;28;20490;-65
2023/04/04 09:01:52;;;;;;;2.43;1.53;;;19.60;39.10;;;;;;5058365;28;20444;-63
2023/04/04 09:04:22;;;;;;;6.07;1.63;;;18.80;38.80;;;;;;5058054;28;20419;-62
2023/04/04 09:06:50;;;;;;;4.07;1.43;;;18.20;39.70;;;;;;5058054;28;20440;-62
2023/04/04 09:09:20;;;;;;;2.17;1.60;;;18.10;39.70;;;;;;5057777;28;20437;-64
2023/04/04 09:11:48;;;;;;;3.20;1.60;;;17.60;40.10;;;;;;5056426;28;20499;-63
2023/04/04 09:14:15;;;;;;;2.37;1.33;;;17.30;40.90;;;;;;5056280;28;20459;-62
2023/04/04 09:16:42;;;;;;;5.70;1.97;;;17.60;42.00;;;;;;5057741;28;20496;-65
2023/04/04 09:19:08;;;;;;;4.83;1.87;;;17.80;40.90;;;;;;5056955;28;20464;-62
2023/04/04 09:21:38;;;;;;;1.80;1.10;;;18.10;40.40;;;;;;5056972;28;20440;-65
2023/04/04 09:24:05;;;;;;;2.00;1.67;;;18.10;39.50;;;;;;5056273;28;20963;-60
2023/04/04 09:26:47;;;;;;;3.00;1.50;;;18.30;40.20;;;;;;5057371;28;20463;-59
2023/04/04 09:29:14;;;;;;;2.87;1.50;;;17.90;38.70;;;;;;5057316;28;20456;-62
2023/04/04 09:31:45;;;;;;;2.13;1.63;;;16.50;39.70;;;;;;5057905;28;20475;-62
2023/04/04 09:34:15;;;;;;;3.53;1.77;;;15.10;41.40;;;;;;5057608;28;20514;-64
2023/04/04 09:36:45;;;;;;;2.40;1.50;;;14.20;43.80;;;;;;5058219;28;20463;-65
2023/04/04 09:39:15;;;;;;;2.40;1.30;;;14.70;45.10;;;;;;5054938;28;20476;-61
2023/04/04 09:41:42;;;;;;;2.10;1.37;;;15.60;43.30;;;;;;5057433;28;20440;-66
2023/04/04 09:44:11;;;;;;;5.07;1.93;;;16.40;41.90;;;;;;5058010;28;20440;-62
2023/04/04 09:46:39;;;;;;;2.17;1.33;;;16.70;41.10;;;;;;5058361;28;20397;-62
2023/04/04 09:49:12;;;;;;;2.20;1.37;;;16.00;41.20;;;;;;5058341;28;20432;-61
2023/04/04 09:51:40;;;;;;;5.53;1.90;;;15.60;43.10;;;;;;5057416;28;20876;-61
2023/04/04 09:54:10;;;;;;;2.00;1.43;;;15.50;42.20;;;;;;5057523;28;20494;-58
2023/04/04 09:56:38;;;;;;;1.97;1.63;;;14.90;43.00;;;;;;5056966;28;20452;-64
2023/04/04 09:59:07;;;;;;;2.43;1.60;;;14.40;43.70;;;;;;5056857;28;20486;-61
2023/04/04 10:01:34;;;;;;;2.00;1.50;;;13.60;44.00;;;;;;5057366;28;20484;-62
2023/04/04 10:04:03;;;;;;;9.70;2.73;;;13.30;45.90;;;;;;5056427;28;20444;-60
2023/04/04 10:06:30;;;;;;;11.00;1.87;;;13.90;45.80;;;;;;5056899;28;20423;-65
2023/04/04 10:08:58;;;;;;;7.37;2.20;;;15.00;45.40;;;;;;5056865;28;20424;-65
2023/04/04 10:11:32;;;;;;;4.53;1.73;;;15.90;43.90;;;;;;5057018;28;20431;-63
2023/04/04 10:14:02;;;;;;;2.40;1.60;;;16.30;42.50;;;;;;5056518;28;20425;-60
2023/04/04 10:16:33;;;;;;;2.03;1.20;;;16.60;41.80;;;;;;5057566;28;20481;-62
2023/04/04 10:19:01;;;;;;;2.33;1.40;;;17.00;41.80;;;;;;5057121;28;20531;-60
2023/04/04 10:21:28;;;;;;;1.80;1.50;;;17.10;41.00;;;;;;5056968;28;20842;-63
2023/04/04 10:23:58;;;;;;;1.40;1.10;;;17.10;41.60;;;;;;5056334;28;20456;-62
2023/04/04 10:26:35;;;;;;;4.90;1.43;;;16.80;41.30;;;;;;5056713;28;20432;-62
2023/04/04 10:29:04;;;;;;;1.73;1.20;;;15.70;40.40;;;;;;5056649;28;20419;-59
2023/04/04 10:31:33;;;;;;;2.40;1.47;;;14.40;41.80;;;;;;5056217;28;20421;-64
2023/04/04 10:34:10;;;;;;;1.20;0.87;;;13.30;42.50;;;;;;5055600;28;20448;-64
2023/04/04 10:36:43;;;;;;;4.53;1.50;;;12.40;44.60;;;;;;5056777;28;20427;-61
2023/04/04 10:39:15;;;;;;;1.63;1.23;;;11.60;45.10;;;;;;5055873;28;20464;-63
2023/04/04 10:41:42;;;;;;;1.50;1.10;;;10.90;45.80;;;;;;5056356;28;20479;-60
2023/04/04 10:44:20;;;;;;;6.03;1.30;;;10.50;47.00;;;;;;5056779;28;20441;-65
2023/04/04 10:46:51;;;;;;;1.57;0.90;;;10.30;48.50;;;;;;5055877;28;20467;-64
2023/04/04 10:49:20;;;;;;;2.30;1.37;;;10.00;49.20;;;;;;5056104;28;20420;-62
2023/04/04 10:51:48;;;;;;;1.63;0.90;;;9.70;50.40;;;;;;5056203;28;20474;-65
2023/04/04 10:54:15;;;;;;;2.77;1.10;;;9.50;50.70;;;;;;5056354;28;20924;-63
2023/04/04 10:56:42;;;;;;;1.30;1.00;;;9.30;50.10;;;;;;5056285;28;20443;-64
2023/04/04 10:59:13;;;;;;;3.57;1.57;;;9.00;49.50;;;;;;5056088;28;20448;-64
2023/04/04 11:01:55;;;;;;;3.57;2.33;;;8.70;49.80;;;;;;5056469;28;20433;-60
2023/04/04 11:04:30;;;;;;;2.20;1.57;;;8.60;50.60;;;;;;5056526;28;20428;-63
2023/04/04 11:07:15;;;;;;;2.27;1.30;;;8.50;50.60;;;;;;5057016;28;20432;-57
2023/04/04 11:09:54;;;;;;;1.60;1.00;;;8.50;51.10;;;;;;5056741;28;20448;-61
2023/04/04 11:12:27;;;;;;;6.03;1.67;;;9.00;51.40;;;;;;5056662;28;20428;-61
2023/04/04 11:15:11;;;;;;;2.10;0.97;;;9.40;51.20;;;;;;5056798;28;20467;-64
2023/04/04 11:17:56;;;;;;;1.90;1.20;;;9.70;50.20;;;;;;5055937;28;20444;-63
2023/04/04 11:20:24;;;;;;;2.80;1.43;;;9.60;49.60;;;;;;5056410;28;20484;-63
2023/04/04 11:22:53;;;;;;;5.53;1.70;;;9.60;49.90;;;;;;5055945;28;20475;-63
2023/04/04 11:25:31;;;;;;;2.90;0.80;;;9.40;50.80;;;;;;5056193;28;20461;-58
2023/04/04 11:27:59;;;;;;;3.60;1.20;;;9.30;50.20;;;;;;5055761;28;20439;-59
2023/04/04 11:30:28;;;;;;;1.47;0.90;;;9.20;48.90;;;;;;5056736;28;20440;-60
2023/04/04 11:32:59;;;;;;;3.20;1.37;;;9.00;48.60;;;;;;5056125;28;20497;-62
2023/04/04 11:35:28;;;;;;;1.53;1.10;;;9.00;48.50;;;;;;5055790;28;20424;-62
2023/04/04 11:38:02;;;;;;;1.23;0.80;;;9.00;49.80;;;;;;5055469;28;20496;-61
2023/04/04 11:40:41;;;;;;;3.50;1.10;;;9.20;50.00;;;;;;5060117;28;20454;-61
2023/04/04 11:43:09;;;;;;;2.43;0.87;;;9.40;49.70;;;;;;5060051;28;20495;-64
2023/04/04 11:45:45;;;;;;;3.30;1.23;;;9.40;50.50;;;;;;5060007;28;20453;-63
2023/04/04 11:48:14;;;;;;;2.60;1.00;;;9.50;50.40;;;;;;5059506;28;20454;-62
2023/04/04 11:50:43;;;;;;;1.47;1.00;;;9.40;50.00;;;;;;5060546;28;20446;-58
2023/04/04 11:53:11;;;;;;;3.00;1.23;;;9.40;49.60;;;;;;5060355;28;20500;-58
2023/04/04 11:55:43;;;;;;;1.53;1.10;;;9.30;48.90;;;;;;5060934;28;20443;-58
2023/04/04 11:58:13;;;;;;;3.63;1.23;;;9.10;48.50;;;;;;5058613;28;20467;-59
2023/04/04 12:00:47;;;;;;;2.87;1.60;;;8.90;48.50;;;;;;5060508;28;20436;-62
2023/04/04 12:03:17;;;;;;;2.77;0.90;;;8.90;49.20;;;;;;5060150;28;20463;-57
2023/04/04 12:05:46;;;;;;;10.87;1.77;;;9.10;49.90;;;;;;5059620;28;20810;-64
2023/04/04 12:08:14;;;;;;;1.70;1.03;;;9.20;50.20;;;;;;5059618;28;20440;-61
2023/04/04 12:10:43;;;;;;;2.40;0.80;;;9.40;50.00;;;;;;5060052;28;20444;-61
2023/04/04 12:13:12;;;;;;;1.30;0.80;;;9.50;49.40;;;;;;5060002;28;20520;-56
2023/04/04 12:15:38;;;;;;;1.97;0.80;;;9.50;48.90;;;;;;5059516;28;20460;-56
2023/04/04 12:18:20;;;;;;;1.50;1.10;;;9.60;49.40;;;;;;5059147;28;20482;-61
2023/04/04 12:20:51;;;;;;;2.90;1.10;;;9.70;48.40;;;;;;5059419;28;20479;-62
2023/04/04 12:23:20;;;;;;;1.77;1.00;;;9.60;48.60;;;;;;5059395;28;20428;-61
2023/04/04 12:25:52;;;;;;;1.20;0.80;;;9.50;49.00;;;;;;5059082;28;20420;-62
2023/04/04 12:28:20;;;;;;;1.70;1.00;;;9.60;49.30;;;;;;5058932;28;20424;-60
2023/04/04 12:30:46;;;;;;;2.03;0.97;;;9.70;48.30;;;;;;5059161;28;20559;-63
2023/04/04 12:33:17;;;;;;;3.10;1.13;;;9.70;47.90;;;;;;5058726;28;20488;-61
2023/04/04 12:35:55;;;;;;;4.23;1.20;;;9.70;48.50;;;;;;5058716;28;20432;-62
2023/04/04 12:38:23;;;;;;;1.83;1.23;;;9.70;48.30;;;;;;5058833;28;20468;-58
2023/04/04 12:40:51;;;;;;;3.77;1.30;;;9.70;48.00;;;;;;5059187;28;20451;-62
2023/04/04 12:43:19;;;;;;;1.43;0.83;;;9.60;47.90;;;;;;5059656;28;20456;-60
2023/04/04 12:45:48;;;;;;;1.40;0.90;;;9.60;47.70;;;;;;5059285;28;20448;-63
2023/04/04 12:48:16;;;;;;;1.90;0.90;;;9.60;47.80;;;;;;5060060;28;20458;-59
2023/04/04 12:50:53;;;;;;;3.93;1.10;;;9.70;48.80;;;;;;5058982;28;20447;-59
2023/04/04 12:53:23;;;;;;;3.50;0.90;;;9.70;48.40;;;;;;5058804;28;20416;-61
2023/04/04 12:55:51;;;;;;;2.50;1.40;;;9.50;48.40;;;;;;5058390;28;20483;-62
2023/04/04 12:58:21;;;;;;;1.47;0.80;;;9.50;49.20;;;;;;5059086;28;20468;-60
2023/04/04 13:00:50;;;;;;;2.20;1.20;;;9.50;49.40;;;;;;5058845;28;20531;-59
2023/04/04 13:03:19;;;;;;;3.47;1.10;;;9.40;49.50;;;;;;5058692;28;20480;-64
2023/04/04 13:05:47;;;;;;;1.97;1.00;;;9.30;49.50;;;;;;5058620;28;20466;-60
2023/04/04 13:08:19;;;;;;;1.10;0.90;;;9.20;49.50;;;;;;5058590;28;20512;-61